Time;durP1;ratioP1;P1;durP2;ratioP2;P2;SDS_P1;SDS_P2;PMS_P1;PMS_P2;Temp;Humidity;BMP_temperature;BMP_pressure;BME280_temperature;BME280_humidity;BME280_pressure;Samples;Min_cycle;Max_cycle;Signal;HPM_P1;HPM_P2
2021/04/21 00:01:29;;;;;;;19.13;9.57;;;;;;;;;;5082797;28;20036;-55
2021/04/21 00:03:55;;;;;;;20.67;9.02;;;;;;;;;;5078362;28;20115;-54
2021/04/21 00:06:22;;;;;;;21.75;9.27;;;;;;;;;;5082204;28;20036;-56
2021/04/21 00:08:48;;;;;;;21.83;9.10;;;;;;;;;;5079929;28;20044;-53
2021/04/21 00:11:15;;;;;;;21.38;9.43;;;;;;;;;;5080082;28;20044;-51
2021/04/21 00:13:45;;;;;;;21.45;9.52;;;;;;;;;;5081363;28;20084;-55
2021/04/21 00:16:12;;;;;;;20.67;9.20;;;;;;;;;;5079081;28;20160;-49
2021/04/21 00:18:40;;;;;;;19.65;8.30;;;;;;;;;;5080848;28;20055;-49
2021/04/21 00:21:06;;;;;;;20.35;8.45;;;;;;;;;;5078015;28;20037;-55
2021/04/21 00:23:34;;;;;;;24.80;10.60;;;;;;;;;;5083122;28;20081;-55
2021/04/21 00:26:01;;;;;;;17.13;8.77;;;;;;;;;;5080098;28;20032;-54
2021/04/21 00:28:29;;;;;;;23.42;9.80;;;;;;;;;;5082631;28;20048;-51
2021/04/21 00:30:56;;;;;;;20.17;9.43;;;;;;;;;;5077562;28;20047;-56
2021/04/21 00:33:23;;;;;;;24.60;9.40;;;;;;;;;;5081754;28;20047;-54
2021/04/21 00:35:51;;;;;;;19.63;8.70;;;;;;;;;;5078529;28;20121;-54
2021/04/21 00:38:17;;;;;;;21.63;9.95;;;;;;;;;;5079951;28;20093;-54
2021/04/21 00:40:49;;;;;;;21.75;8.93;;;;;;;;;;5077769;28;20052;-52
2021/04/21 00:43:21;;;;;;;20.55;9.85;;;;;;;;;;5082425;28;20120;-52
2021/04/21 00:45:48;;;;;;;21.98;9.73;;;;;;;;;;5076981;28;20060;-55
2021/04/21 00:48:21;;;;;;;22.75;10.00;;;;;;;;;;5081209;28;20036;-55
2021/04/21 00:50:51;;;;;;;18.00;8.63;;;;;;;;;;5077561;28;20040;-55
2021/04/21 00:53:21;;;;;;;19.65;9.88;;;;;;;;;;5080365;28;20113;-57
2021/04/21 00:55:49;;;;;;;26.92;9.70;;;;;;;;;;5080060;28;20056;-57
2021/04/21 00:58:19;;;;;;;24.08;9.52;;;;;;;;;;5079978;28;20044;-57
2021/04/21 01:00:47;;;;;;;24.05;9.80;;;;;;;;;;5078846;28;20150;-52
2021/04/21 01:03:15;;;;;;;20.25;10.05;;;;;;;;;;5078916;28;20302;-51
2021/04/21 01:05:43;;;;;;;21.77;8.88;;;;;;;;;;5081993;28;20036;-50
2021/04/21 01:08:11;;;;;;;20.92;9.63;;;;;;;;;;5077906;28;20040;-55
2021/04/21 01:10:39;;;;;;;30.35;10.15;;;;;;;;;;5081400;28;20039;-52
2021/04/21 01:13:05;;;;;;;17.08;9.07;;;;;;;;;;5076628;28;20052;-52
2021/04/21 01:15:33;;;;;;;21.80;9.98;;;;;;;;;;5080723;28;20040;-50
2021/04/21 01:18:00;;;;;;;24.95;10.93;;;;;;;;;;5078060;28;20044;-55
2021/04/21 01:20:28;;;;;;;22.98;10.32;;;;;;;;;;5080254;28;20048;-55
2021/04/21 01:23:13;;;;;;;22.92;11.13;;;;;;;;;;5074682;28;20040;-53
2021/04/21 01:25:43;;;;;;;29.27;10.63;;;;;;;;;;5080295;28;20067;-56
2021/04/21 01:28:12;;;;;;;23.17;10.52;;;;;;;;;;5075674;28;20047;-53
2021/04/21 01:30:40;;;;;;;25.58;11.48;;;;;;;;;;5080034;28;20032;-52
2021/04/21 01:33:12;;;;;;;26.08;11.98;;;;;;;;;;5078304;28;20063;-48
2021/04/21 01:35:40;;;;;;;28.33;12.43;;;;;;;;;;5078703;28;20044;-54
2021/04/21 01:38:07;;;;;;;27.87;10.67;;;;;;;;;;5076908;28;20068;-52
2021/04/21 01:40:34;;;;;;;24.33;11.52;;;;;;;;;;5080636;28;20109;-50
2021/04/21 01:43:05;;;;;;;23.10;11.65;;;;;;;;;;5077346;28;20088;-50
2021/04/21 01:45:33;;;;;;;24.95;11.18;;;;;;;;;;5080894;28;20036;-56
2021/04/21 01:48:02;;;;;;;24.70;10.88;;;;;;;;;;5075683;28;20036;-53
2021/04/21 01:50:28;;;;;;;28.00;10.85;;;;;;;;;;5080336;28;20055;-56
2021/04/21 01:52:56;;;;;;;23.92;11.38;;;;;;;;;;5077598;28;20082;-54
2021/04/21 01:55:35;;;;;;;29.42;12.50;;;;;;;;;;5081987;28;20040;-53
2021/04/21 01:58:08;;;;;;;30.30;12.10;;;;;;;;;;5081461;28;20032;-57
2021/04/21 02:00:36;;;;;;;24.80;11.82;;;;;;;;;;5060621;28;20060;-49
2021/04/21 02:03:10;;;;;;;24.80;11.87;;;;;;;;;;5061612;28;20040;-55
2021/04/21 02:05:42;;;;;;;23.55;11.23;;;;;;;;;;5075443;28;20292;-54
2021/04/21 02:08:12;;;;;;;25.05;12.23;;;;;;;;;;5079263;28;20028;-55
2021/04/21 02:10:44;;;;;;;25.45;11.50;;;;;;;;;;5078317;28;20041;-54
2021/04/21 02:13:16;;;;;;;28.00;12.10;;;;;;;;;;5080974;28;20125;-56
2021/04/21 02:16:00;;;;;;;27.95;12.73;;;;;;;;;;5074728;28;20044;-55
2021/04/21 02:18:33;;;;;;;24.70;12.57;;;;;;;;;;5068663;28;20100;-54
2021/04/21 02:21:03;;;;;;;32.22;12.30;;;;;;;;;;5074721;28;20044;-50
2021/04/21 02:23:33;;;;;;;26.27;13.20;;;;;;;;;;5081459;28;20052;-54
2021/04/21 02:26:04;;;;;;;26.70;11.75;;;;;;;;;;5078467;28;20052;-51
2021/04/21 02:28:37;;;;;;;24.13;11.82;;;;;;;;;;5082396;28;20113;-53
2021/04/21 02:31:08;;;;;;;25.08;12.40;;;;;;;;;;5078925;28;20129;-54
2021/04/21 02:33:38;;;;;;;29.10;13.20;;;;;;;;;;5079403;28;20126;-49
2021/04/21 02:36:07;;;;;;;31.98;12.70;;;;;;;;;;5071329;28;20044;-51
2021/04/21 02:38:35;;;;;;;37.78;13.63;;;;;;;;;;5082551;28;20036;-53
2021/04/21 02:41:07;;;;;;;32.63;13.18;;;;;;;;;;5078723;28;20048;-56
2021/04/21 02:43:40;;;;;;;28.73;13.35;;;;;;;;;;5082789;28;20055;-49
2021/04/21 02:46:07;;;;;;;27.75;13.20;;;;;;;;;;5079428;28;20044;-48
2021/04/21 02:48:47;;;;;;;31.52;12.43;;;;;;;;;;5082531;28;20051;-52
2021/04/21 02:51:15;;;;;;;29.60;12.60;;;;;;;;;;5080301;28;20044;-51
2021/04/21 02:53:41;;;;;;;;;;;;;;;;;;5085403;28;20039;-53
2021/04/21 02:56:14;;;;;;;28.30;12.18;;;;;;;;;;5078624;28;19932;-54
2021/04/21 02:58:44;;;;;;;27.95;13.43;;;;;;;;;;5080369;28;20037;-50
2021/04/21 03:01:13;;;;;;;23.33;12.43;;;;;;;;;;5077766;28;20044;-52
2021/04/21 03:03:46;;;;;;;28.27;12.93;;;;;;;;;;5081845;28;20183;-50
2021/04/21 03:06:17;;;;;;;33.67;12.88;;;;;;;;;;5079000;28;20154;-51
2021/04/21 03:08:47;;;;;;;28.42;13.68;;;;;;;;;;5081851;28;20036;-51
2021/04/21 03:11:15;;;;;;;36.33;13.73;;;;;;;;;;5078292;28;20052;-53
2021/04/21 03:13:45;;;;;;;28.02;14.35;;;;;;;;;;5081467;28;20050;-54
2021/04/21 03:16:12;;;;;;;31.77;14.57;;;;;;;;;;5079914;28;20044;-54
2021/04/21 03:18:40;;;;;;;34.67;15.23;;;;;;;;;;5083343;28;20036;-52
2021/04/21 03:21:10;;;;;;;28.55;14.82;;;;;;;;;;5082048;28;20129;-49
2021/04/21 03:23:38;;;;;;;31.98;14.60;;;;;;;;;;5079870;28;20044;-48
2021/04/21 03:26:04;;;;;;;25.77;13.63;;;;;;;;;;5083908;28;20040;-48
2021/04/21 03:28:31;;;;;;;32.15;14.07;;;;;;;;;;5080097;28;20074;-49
2021/04/21 03:30:58;;;;;;;27.33;14.13;;;;;;;;;;5083423;28;20090;-52
2021/04/21 03:33:27;;;;;;;31.35;14.60;;;;;;;;;;5075379;28;20048;-51
2021/04/21 03:35:53;;;;;;;34.92;15.70;;;;;;;;;;5081121;28;20041;-49
2021/04/21 03:38:21;;;;;;;31.90;14.70;;;;;;;;;;5077158;28;20042;-55
2021/04/21 03:40:48;;;;;;;36.07;16.13;;;;;;;;;;5081811;28;20051;-56
2021/04/21 03:43:15;;;;;;;34.78;15.65;;;;;;;;;;5078507;28;20048;-56
2021/04/21 03:45:45;;;;;;;37.25;16.13;;;;;;;;;;5081271;28;20044;-54
2021/04/21 03:48:14;;;;;;;36.53;15.73;;;;;;;;;;5076958;28;20063;-50
2021/04/21 03:50:40;;;;;;;33.10;16.45;;;;;;;;;;5081383;28;20052;-54
2021/04/21 03:53:07;;;;;;;33.90;15.82;;;;;;;;;;5077933;28;20044;-51
2021/04/21 03:55:34;;;;;;;35.75;15.50;;;;;;;;;;5081877;28;20040;-49
2021/04/21 03:58:03;;;;;;;30.02;14.60;;;;;;;;;;5077004;28;20129;-49
2021/04/21 04:00:29;;;;;;;33.13;15.30;;;;;;;;;;5078622;28;20039;-50
2021/04/21 04:02:57;;;;;;;35.25;17.23;;;;;;;;;;5059371;28;20040;-50
2021/04/21 04:05:26;;;;;;;32.63;15.93;;;;;;;;;;5080878;28;20036;-49
2021/04/21 04:07:54;;;;;;;36.67;17.50;;;;;;;;;;5081642;28;20036;-53
2021/04/21 04:10:20;;;;;;;31.63;15.18;;;;;;;;;;5076326;28;20058;-52
2021/04/21 04:12:48;;;;;;;35.17;16.77;;;;;;;;;;5081659;28;20032;-54
2021/04/21 04:15:14;;;;;;;35.38;17.35;;;;;;;;;;5078093;28;20044;-53
2021/04/21 04:17:44;;;;;;;39.08;15.57;;;;;;;;;;5081732;28;20048;-49
2021/04/21 04:20:13;;;;;;;35.97;16.25;;;;;;;;;;5077482;28;20047;-53
2021/04/21 04:22:42;;;;;;;37.78;17.13;;;;;;;;;;5080463;28;20121;-53
2021/04/21 04:25:12;;;;;;;37.17;16.00;;;;;;;;;;5078502;28;20044;-52
2021/04/21 04:27:39;;;;;;;33.33;16.75;;;;;;;;;;5081430;28;20032;-50
2021/04/21 04:30:07;;;;;;;30.38;14.98;;;;;;;;;;5077362;28;20055;-52
2021/04/21 04:32:37;;;;;;;34.05;16.83;;;;;;;;;;5081779;28;20044;-50
2021/04/21 04:35:03;;;;;;;29.92;14.50;;;;;;;;;;5079905;28;20044;-51
2021/04/21 04:37:30;;;;;;;31.48;15.65;;;;;;;;;;5071760;28;20036;-52
2021/04/21 04:39:56;;;;;;;32.88;17.63;;;;;;;;;;5057478;28;20041;-54
2021/04/21 04:42:22;;;;;;;33.97;17.10;;;;;;;;;;5061578;28;20041;-51
2021/04/21 04:44:49;;;;;;;41.85;18.25;;;;;;;;;;5057701;28;20052;-53
2021/04/21 04:47:20;;;;;;;32.60;17.10;;;;;;;;;;5060222;28;20052;-50
2021/04/21 04:49:47;;;;;;;33.13;16.92;;;;;;;;;;5058525;28;20029;-51
2021/04/21 04:52:14;;;;;;;41.58;17.45;;;;;;;;;;5060936;28;20049;-49
2021/04/21 04:54:40;;;;;;;27.48;14.70;;;;;;;;;;5062067;28;20044;-53
2021/04/21 04:57:07;;;;;;;33.95;16.48;;;;;;;;;;5061426;28;20121;-47
2021/04/21 04:59:36;;;;;;;37.38;16.85;;;;;;;;;;5061129;28;20040;-53
2021/04/21 05:02:04;;;;;;;35.28;16.58;;;;;;;;;;5054722;28;20037;-52
2021/04/21 05:04:36;;;;;;;36.30;17.58;;;;;;;;;;5040656;28;20087;-52
2021/04/21 05:07:04;;;;;;;33.25;16.75;;;;;;;;;;5063903;28;20040;-54
2021/04/21 05:09:32;;;;;;;46.93;22.10;;;;;;;;;;5062482;28;20048;-51
2021/04/21 05:11:58;;;;;;;39.25;19.38;;;;;;;;;;5070824;28;20059;-50
2021/04/21 05:14:25;;;;;;;34.28;17.33;;;;;;;;;;5080568;28;20037;-51
2021/04/21 05:17:15;;;;;;;36.60;16.50;;;;;;;;;;5076227;28;20047;-49
2021/04/21 05:20:01;;;;;;;35.38;16.23;;;;;;;;;;5080797;28;20040;-53
2021/04/21 05:22:45;;;;;;;35.40;15.88;;;;;;;;;;5075659;28;20048;-51
2021/04/21 05:25:26;;;;;;;34.38;16.50;;;;;;;;;;5078599;28;20056;-53
2021/04/21 05:28:07;;;;;;;33.90;16.60;;;;;;;;;;5066198;28;20037;-48
2021/04/21 05:30:49;;;;;;;34.22;16.80;;;;;;;;;;5071188;28;20041;-51
2021/04/21 05:33:48;;;;;;;34.25;16.65;;;;;;;;;;5066160;28;20041;-54
2021/04/21 05:36:37;;;;;;;35.00;16.17;;;;;;;;;;4992619;28;20057;-52
2021/04/21 05:39:30;;;;;;;35.75;17.05;;;;;;;;;;4995350;28;20054;-54
2021/04/21 05:42:19;;;;;;;33.30;16.15;;;;;;;;;;5019377;28;20029;-58
2021/04/21 05:45:00;;;;;;;33.13;16.10;;;;;;;;;;5072585;28;20106;-53
2021/04/21 05:47:55;;;;;;;35.88;16.40;;;;;;;;;;5067135;28;20032;-53
2021/04/21 05:50:50;;;;;;;29.15;15.07;;;;;;;;;;5071613;28;20040;-50
2021/04/21 05:53:40;;;;;;;32.65;17.15;;;;;;;;;;5067523;28;20061;-53
2021/04/21 05:56:24;;;;;;;34.35;16.23;;;;;;;;;;5072549;28;20049;-55
2021/04/21 05:59:05;;;;;;;31.63;16.00;;;;;;;;;;5070106;28;20041;-50
2021/04/21 06:01:32;;;;;;;41.20;18.63;;;;;;;;;;5039927;28;20044;-53
2021/04/21 06:03:59;;;;;;;34.05;16.90;;;;;;;;;;5072812;28;20052;-59
2021/04/21 06:06:25;;;;;;;42.67;19.83;;;;;;;;;;5066736;28;20086;-57
2021/04/21 06:08:52;;;;;;;36.78;17.75;;;;;;;;;;5069341;28;20032;-55
2021/04/21 06:11:19;;;;;;;38.47;17.30;;;;;;;;;;5084979;28;20045;-58
2021/04/21 06:13:46;;;;;;;38.95;17.65;;;;;;;;;;5076829;28;20044;-56
2021/04/21 06:16:12;;;;;;;33.83;15.93;;;;;;;;;;5081860;28;20082;-59
2021/04/21 06:18:38;;;;;;;37.88;14.80;;;;;;;;;;5079434;28;20028;-57
2021/04/21 06:21:15;;;;;;;37.55;18.13;;;;;;;;;;5082397;28;20044;-55
2021/04/21 06:23:41;;;;;;;39.47;16.60;;;;;;;;;;5081202;28;20028;-53
2021/04/21 06:26:08;;;;;;;43.10;19.60;;;;;;;;;;5083624;28;20036;-56
2021/04/21 06:28:34;;;;;;;34.00;17.33;;;;;;;;;;5081473;28;20095;-56
2021/04/21 06:31:05;;;;;;;37.88;18.65;;;;;;;;;;5082147;28;20048;-55
2021/04/21 06:33:31;;;;;;;38.42;18.85;;;;;;;;;;5082509;28;20047;-58
2021/04/21 06:35:57;;;;;;;37.50;16.58;;;;;;;;;;5077367;28;20049;-53
2021/04/21 06:38:29;;;;;;;39.20;20.08;;;;;;;;;;5082752;28;20044;-56
2021/04/21 06:40:55;;;;;;;39.58;16.38;;;;;;;;;;5069207;28;20056;-51
2021/04/21 06:43:26;;;;;;;35.83;17.55;;;;;;;;;;5082822;28;20129;-50
2021/04/21 06:45:52;;;;;;;34.58;15.93;;;;;;;;;;5079211;28;20067;-55
2021/04/21 06:48:26;;;;;;;39.67;15.73;;;;;;;;;;5082581;28;20055;-58
2021/04/21 06:50:52;;;;;;;32.47;15.18;;;;;;;;;;5078368;28;20040;-55
2021/04/21 06:53:27;;;;;;;42.17;16.45;;;;;;;;;;5082818;28;20051;-58
2021/04/21 06:55:55;;;;;;;33.85;17.13;;;;;;;;;;5077492;28;20040;-59
2021/04/21 06:58:22;;;;;;;35.72;15.80;;;;;;;;;;5082200;28;20044;-57
2021/04/21 07:00:49;;;;;;;31.55;14.30;;;;;;;;;;5077818;28;20032;-56
2021/04/21 07:03:16;;;;;;;37.25;16.10;;;;;;;;;;5080677;28;20036;-55
2021/04/21 07:05:43;;;;;;;28.55;12.82;;;;;;;;;;5078371;28;20320;-57
2021/04/21 07:08:10;;;;;;;26.67;13.45;;;;;;;;;;5081079;28;20046;-58
2021/04/21 07:10:37;;;;;;;27.38;12.93;;;;;;;;;;5079176;28;20044;-52
2021/04/21 07:13:04;;;;;;;21.27;10.70;;;;;;;;;;5082753;28;20032;-58
2021/04/21 07:15:30;;;;;;;26.85;13.18;;;;;;;;;;5078530;28;20028;-58
2021/04/21 07:17:58;;;;;;;27.52;12.07;;;;;;;;;;5083421;28;20108;-56
2021/04/21 07:20:24;;;;;;;28.75;13.40;;;;;;;;;;5082922;28;20053;-57
2021/04/21 07:22:50;;;;;;;28.17;11.57;;;;;;;;;;5079941;28;20065;-57
2021/04/21 07:25:17;;;;;;;28.40;12.70;;;;;;;;;;5083318;28;20043;-59
2021/04/21 07:27:45;;;;;;;25.08;11.80;;;;;;;;;;5077566;28;20040;-58
2021/04/21 07:30:12;;;;;;;28.97;12.53;;;;;;;;;;5081322;28;20044;-58
2021/04/21 07:32:59;;;;;;;23.58;11.57;;;;;;;;;;5078375;28;20293;-60
2021/04/21 07:35:30;;;;;;;31.92;13.43;;;;;;;;;;5040752;28;20048;-58
2021/04/21 07:37:57;;;;;;;22.27;10.40;;;;;;;;;;5069953;28;20060;-58
2021/04/21 07:40:32;;;;;;;21.75;10.95;;;;;;;;;;5082127;28;20040;-59
2021/04/21 07:43:10;;;;;;;18.98;9.32;;;;;;;;;;5078425;28;20036;-59
2021/04/21 07:45:44;;;;;;;18.83;10.13;;;;;;;;;;5082438;28;20113;-56
2021/04/21 07:48:32;;;;;;;25.50;10.85;;;;;;;;;;5077921;28;20048;-59
2021/04/21 07:50:59;;;;;;;23.58;10.98;;;;;;;;;;5061834;28;20150;-60
2021/04/21 07:53:25;;;;;;;24.65;10.27;;;;;;;;;;5072096;28;20071;-60
2021/04/21 07:56:02;;;;;;;20.98;8.93;;;;;;;;;;5084850;28;20037;-61
2021/04/21 07:58:31;;;;;;;19.40;9.20;;;;;;;;;;5077982;28;20114;-61
2021/04/21 08:00:57;;;;;;;;;;;;;;;;;;5076850;28;20045;-60
2021/04/21 08:03:23;;;;;;;19.85;8.20;;;;;;;;;;5066369;28;20010;-57
2021/04/21 08:05:52;;;;;;;19.38;8.93;;;;;;;;;;5081909;28;20036;-56
2021/04/21 08:08:27;;;;;;;23.08;8.73;;;;;;;;;;5078315;28;20044;-59
2021/04/21 08:10:53;;;;;;;28.20;9.90;;;;;;;;;;5080241;28;20037;-57
2021/04/21 08:13:34;;;;;;;24.48;8.52;;;;;;;;;;5079545;28;20032;-59
2021/04/21 08:16:04;;;;;;;23.30;8.93;;;;;;;;;;5080418;28;20041;-56
2021/04/21 08:18:34;;;;;;;16.17;6.97;;;;;;;;;;5076353;28;20032;-59
2021/04/21 08:21:00;;;;;;;18.25;7.85;;;;;;;;;;5081647;28;20036;-59
2021/04/21 08:23:28;;;;;;;21.10;8.75;;;;;;;;;;5076929;28;20040;-60
2021/04/21 08:25:54;;;;;;;15.88;8.05;;;;;;;;;;5077793;28;20036;-60
2021/04/21 08:28:21;;;;;;;22.20;8.65;;;;;;;;;;5077038;28;20148;-56
2021/04/21 08:30:52;;;;;;;22.85;8.63;;;;;;;;;;5078955;28;20039;-56
2021/04/21 08:33:18;;;;;;;24.55;9.38;;;;;;;;;;5082328;28;20059;-61
2021/04/21 08:35:45;;;;;;;24.00;9.38;;;;;;;;;;5074620;28;20116;-61
2021/04/21 08:38:12;;;;;;;34.75;9.85;;;;;;;;;;5059214;28;20064;-61
2021/04/21 08:40:40;;;;;;;17.25;8.45;;;;;;;;;;5073961;28;20109;-61
2021/04/21 08:43:15;;;;;;;18.38;8.80;;;;;;;;;;5082668;28;29426;-61
2021/04/21 08:45:42;;;;;;;20.88;8.68;;;;;;;;;;5076437;28;20108;-58
2021/04/21 08:48:08;;;;;;;22.65;8.88;;;;;;;;;;5080133;28;20048;-59
2021/04/21 08:50:36;;;;;;;20.67;8.80;;;;;;;;;;5077118;28;20036;-61
2021/04/21 08:53:06;;;;;;;15.25;7.10;;;;;;;;;;5081223;28;20028;-61
2021/04/21 08:55:32;;;;;;;16.95;7.50;;;;;;;;;;5076067;28;20029;-60
2021/04/21 08:58:03;;;;;;;14.00;7.60;;;;;;;;;;5082761;28;20032;-59
2021/04/21 09:00:29;;;;;;;14.07;6.82;;;;;;;;;;5076148;28;20061;-60
2021/04/21 09:02:55;;;;;;;21.30;8.00;;;;;;;;;;5080266;28;20036;-60
2021/04/21 09:05:25;;;;;;;13.82;5.80;;;;;;;;;;5076256;28;20089;-61
2021/04/21 09:07:55;;;;;;;19.15;7.53;;;;;;;;;;5079514;28;20040;-60
2021/04/21 09:10:21;;;;;;;18.90;7.97;;;;;;;;;;5075068;28;20055;-60
2021/04/21 09:12:47;;;;;;;15.63;7.88;;;;;;;;;;5077870;28;20032;-59
2021/04/21 09:15:15;;;;;;;14.85;8.10;;;;;;;;;;5076567;28;20044;-58
2021/04/21 09:17:42;;;;;;;26.63;8.75;;;;;;;;;;5080444;28;20044;-61
2021/04/21 09:20:12;;;;;;;13.18;5.68;;;;;;;;;;5079732;28;20028;-61
2021/04/21 09:22:52;;;;;;;21.70;8.00;;;;;;;;;;5075700;28;20047;-59
2021/04/21 09:25:21;;;;;;;19.65;8.35;;;;;;;;;;5083212;28;20036;-60
2021/04/21 09:27:54;;;;;;;29.58;10.55;;;;;;;;;;5079193;28;20165;-57
2021/04/21 09:30:22;;;;;;;32.15;10.55;;;;;;;;;;5083189;28;20037;-59
2021/04/21 09:32:49;;;;;;;17.73;8.85;;;;;;;;;;5079631;28;20032;-59
2021/04/21 09:35:16;;;;;;;25.75;10.52;;;;;;;;;;5082204;28;20024;-62
2021/04/21 09:37:42;;;;;;;28.35;10.98;;;;;;;;;;5080626;28;20084;-61
2021/04/21 09:40:12;;;;;;;36.83;11.95;;;;;;;;;;5082223;28;20064;-61
2021/04/21 09:42:38;;;;;;;19.55;9.90;;;;;;;;;;5078600;28;20036;-59
2021/04/21 09:45:05;;;;;;;21.35;9.45;;;;;;;;;;5082585;28;20051;-60
2021/04/21 09:47:35;;;;;;;21.50;10.30;;;;;;;;;;5078100;28;20040;-61
2021/04/21 09:50:01;;;;;;;22.70;9.68;;;;;;;;;;5082937;28;20052;-61
2021/04/21 09:52:32;;;;;;;27.65;10.15;;;;;;;;;;5078540;28;20033;-61
2021/04/21 09:54:58;;;;;;;47.22;15.00;;;;;;;;;;5082349;28;20048;-61
2021/04/21 09:57:31;;;;;;;38.28;14.63;;;;;;;;;;5071299;28;20032;-59
2021/04/21 09:59:58;;;;;;;21.45;9.43;;;;;;;;;;5082043;28;20032;-61
2021/04/21 10:02:31;;;;;;;26.05;11.32;;;;;;;;;;5079189;28;20159;-60
2021/04/21 10:05:01;;;;;;;31.65;12.55;;;;;;;;;;5078295;28;20055;-59
2021/04/21 10:07:27;;;;;;;38.85;13.65;;;;;;;;;;5077784;28;20041;-61
2021/04/21 10:09:58;;;;;;;27.20;12.35;;;;;;;;;;5080202;28;20092;-60
2021/04/21 10:12:32;;;;;;;39.28;14.02;;;;;;;;;;5075710;28;20052;-61
2021/04/21 10:15:06;;;;;;;27.90;11.35;;;;;;;;;;5078635;28;20071;-60
2021/04/21 10:17:34;;;;;;;29.27;11.65;;;;;;;;;;5077807;28;20036;-59
2021/04/21 10:20:03;;;;;;;31.37;12.53;;;;;;;;;;5080734;28;20058;-61
2021/04/21 10:22:29;;;;;;;23.65;10.38;;;;;;;;;;5081447;28;20051;-57
2021/04/21 10:24:55;;;;;;;30.70;13.05;;;;;;;;;;5077086;28;20044;-56
2021/04/21 10:27:22;;;;;;;33.10;13.68;;;;;;;;;;5076162;28;20064;-61
2021/04/21 10:29:48;;;;;;;30.45;11.13;;;;;;;;;;5076708;28;20039;-60
2021/04/21 10:32:15;;;;;;;27.88;13.02;;;;;;;;;;5081457;28;20122;-60
2021/04/21 10:34:41;;;;;;;40.78;14.07;;;;;;;;;;5078168;28;20047;-62
2021/04/21 10:37:10;;;;;;;33.20;11.35;;;;;;;;;;5081912;28;20051;-61
2021/04/21 10:39:36;;;;;;;;;;;;;;;;;;5079388;28;20044;-61
2021/04/21 10:42:06;;;;;;;29.67;10.95;;;;;;;;;;5080447;28;19916;-60
2021/04/21 10:44:32;;;;;;;28.75;11.48;;;;;;;;;;5078740;28;20032;-62
2021/04/21 10:47:04;;;;;;;26.90;10.18;;;;;;;;;;5082512;28;20113;-61
2021/04/21 10:49:57;;;;;;;37.25;9.57;;;;;;;;;;5078466;28;20032;-60
2021/04/21 10:52:32;;;;;;;26.45;10.60;;;;;;;;;;5084399;28;20056;-60
2021/04/21 10:54:59;;;;;;;22.67;10.38;;;;;;;;;;5077188;28;20074;-60
2021/04/21 10:57:27;;;;;;;23.10;10.23;;;;;;;;;;5084061;28;20052;-61
2021/04/21 11:00:05;;;;;;;26.80;11.93;;;;;;;;;;5079613;28;20036;-61
2021/04/21 11:02:47;;;;;;;19.05;9.52;;;;;;;;;;5084731;28;20043;-59
2021/04/21 11:05:15;;;;;;;16.75;7.68;;;;;;;;;;5081179;28;20035;-59
2021/04/21 11:07:42;;;;;;;19.33;7.50;;;;;;;;;;5083062;28;20029;-60
2021/04/21 11:10:09;;;;;;;20.15;8.73;;;;;;;;;;5077311;28;20064;-60
2021/04/21 11:12:50;;;;;;;21.30;8.60;;;;;;;;;;5081341;28;20040;-60
2021/04/21 11:15:32;;;;;;;20.65;8.38;;;;;;;;;;5058741;28;20052;-61
2021/04/21 11:18:15;;;;;;;21.90;9.27;;;;;;;;;;5080660;28;20045;-62
2021/04/21 11:20:58;;;;;;;25.42;8.10;;;;;;;;;;5077929;28;20036;-61
2021/04/21 11:23:45;;;;;;;20.63;8.30;;;;;;;;;;5074563;28;20036;-60
2021/04/21 11:26:35;;;;;;;19.40;8.50;;;;;;;;;;5070562;28;20028;-61
2021/04/21 11:29:03;;;;;;;21.73;9.05;;;;;;;;;;5080208;28;20074;-61
2021/04/21 11:31:48;;;;;;;20.95;9.15;;;;;;;;;;5077705;28;20044;-60
2021/04/21 11:34:18;;;;;;;24.67;9.60;;;;;;;;;;5094460;28;20068;-60
2021/04/21 11:36:50;;;;;;;28.42;11.25;;;;;;;;;;5086909;28;20055;-60
2021/04/21 11:39:31;;;;;;;25.92;12.95;;;;;;;;;;5078601;28;20032;-61
2021/04/21 11:42:14;;;;;;;25.20;11.40;;;;;;;;;;5076094;28;20024;-62
2021/04/21 11:45:08;;;;;;;28.27;11.48;;;;;;;;;;5082015;28;20036;-60
2021/04/21 11:47:38;;;;;;;31.27;12.02;;;;;;;;;;5079180;28;20124;-61
2021/04/21 11:50:22;;;;;;;26.50;12.48;;;;;;;;;;5081627;28;20055;-59
2021/04/21 11:52:52;;;;;;;28.00;11.80;;;;;;;;;;5078532;28;20051;-62
2021/04/21 11:55:23;;;;;;;30.05;12.27;;;;;;;;;;5049354;28;20041;-61
2021/04/21 11:57:57;;;;;;;24.00;11.27;;;;;;;;;;5053009;28;20056;-60
2021/04/21 12:00:24;;;;;;;23.40;10.77;;;;;;;;;;5062013;28;20037;-61
2021/04/21 12:02:51;;;;;;;26.30;12.65;;;;;;;;;;5061032;28;20048;-60
2021/04/21 12:05:20;;;;;;;23.75;9.95;;;;;;;;;;5062070;28;20064;-62
2021/04/21 12:07:50;;;;;;;21.40;9.93;;;;;;;;;;5059199;28;20056;-61
2021/04/21 12:10:20;;;;;;;23.48;10.13;;;;;;;;;;5063039;28;20057;-61
2021/04/21 12:12:47;;;;;;;23.55;9.30;;;;;;;;;;5059745;28;20051;-60
2021/04/21 12:15:14;;;;;;;18.40;8.90;;;;;;;;;;5062035;28;20162;-60
2021/04/21 12:17:58;;;;;;;24.33;8.88;;;;;;;;;;5057970;28;20036;-61
2021/04/21 12:20:27;;;;;;;15.43;6.53;;;;;;;;;;5080859;28;20040;-61
2021/04/21 12:22:53;;;;;;;17.67;7.28;;;;;;;;;;5059734;28;20037;-61
2021/04/21 12:25:23;;;;;;;18.77;8.02;;;;;;;;;;5061186;28;20039;-59
2021/04/21 12:27:53;;;;;;;17.63;8.05;;;;;;;;;;5058777;28;20041;-61
2021/04/21 12:30:23;;;;;;;18.17;7.32;;;;;;;;;;5063062;28;20040;-61
2021/04/21 12:32:50;;;;;;;15.05;7.43;;;;;;;;;;5060600;28;20061;-59
2021/04/21 12:35:16;;;;;;;16.95;6.85;;;;;;;;;;5062821;28;20055;-61
2021/04/21 12:38:03;;;;;;;12.88;5.60;;;;;;;;;;5064448;28;20032;-61
2021/04/21 12:40:30;;;;;;;15.85;5.65;;;;;;;;;;5079235;28;20037;-60
2021/04/21 12:43:07;;;;;;;14.57;4.55;;;;;;;;;;5062066;28;20076;-62
2021/04/21 12:45:35;;;;;;;12.88;5.10;;;;;;;;;;5057993;28;20036;-61
2021/04/21 12:48:18;;;;;;;32.65;6.82;;;;;;;;;;5061067;28;20032;-61
2021/04/21 12:50:46;;;;;;;24.67;4.05;;;;;;;;;;5055340;28;20040;-61
2021/04/21 12:53:12;;;;;;;9.07;3.88;;;;;;;;;;5060691;28;20036;-61
2021/04/21 12:55:38;;;;;;;11.15;4.32;;;;;;;;;;5056960;28;20036;-61
2021/04/21 12:58:05;;;;;;;6.18;2.90;;;;;;;;;;5059273;28;20059;-61
2021/04/21 13:00:32;;;;;;;13.05;3.83;;;;;;;;;;5057130;28;20060;-61
2021/04/21 13:03:02;;;;;;;10.50;3.60;;;;;;;;;;5060945;28;20049;-62
2021/04/21 13:05:44;;;;;;;7.55;3.75;;;;;;;;;;5055536;28;20045;-61
2021/04/21 13:08:18;;;;;;;11.95;3.70;;;;;;;;;;5061824;28;20056;-61
2021/04/21 13:10:44;;;;;;;5.93;3.10;;;;;;;;;;5047650;28;20033;-62
2021/04/21 13:13:15;;;;;;;9.48;3.25;;;;;;;;;;5061450;28;20049;-61
2021/04/21 13:15:41;;;;;;;8.45;3.22;;;;;;;;;;5055946;28;20090;-60
2021/04/21 13:18:12;;;;;;;9.00;3.15;;;;;;;;;;5061245;28;20046;-61
2021/04/21 13:20:39;;;;;;;14.52;3.78;;;;;;;;;;5056118;28;20067;-61
2021/04/21 13:23:15;;;;;;;8.95;3.08;;;;;;;;;;5060136;28;20033;-60
2021/04/21 13:26:02;;;;;;;8.25;2.08;;;;;;;;;;5075247;28;20036;-59
2021/04/21 13:28:32;;;;;;;5.35;2.47;;;;;;;;;;5079876;28;20048;-61
2021/04/21 13:31:05;;;;;;;8.23;3.42;;;;;;;;;;5076345;28;20071;-61
2021/04/21 13:33:32;;;;;;;12.82;3.33;;;;;;;;;;5081370;28;20040;-61
2021/04/21 13:35:58;;;;;;;8.38;2.83;;;;;;;;;;5077556;28;20032;-60
2021/04/21 13:38:26;;;;;;;10.93;3.20;;;;;;;;;;5080927;28;20048;-62
2021/04/21 13:40:55;;;;;;;8.23;2.60;;;;;;;;;;5077215;28;20056;-61
2021/04/21 13:43:21;;;;;;;11.95;3.10;;;;;;;;;;5078904;28;20052;-61
2021/04/21 13:45:47;;;;;;;12.25;2.83;;;;;;;;;;5066282;28;20032;-60
2021/04/21 13:48:13;;;;;;;8.02;2.75;;;;;;;;;;5071964;28;20036;-61
2021/04/21 13:50:41;;;;;;;9.77;3.10;;;;;;;;;;5079687;28;20036;-62
2021/04/21 13:53:07;;;;;;;7.00;3.10;;;;;;;;;;5077294;28;20045;-60
2021/04/21 13:55:33;;;;;;;10.57;2.58;;;;;;;;;;5080588;28;20056;-62
2021/04/21 13:57:59;;;;;;;5.93;2.65;;;;;;;;;;5076324;28;20158;-61
2021/04/21 14:00:26;;;;;;;8.30;2.95;;;;;;;;;;5080436;28;20040;-60
2021/04/21 14:02:54;;;;;;;11.18;2.60;;;;;;;;;;5078970;28;20048;-61
2021/04/21 14:05:20;;;;;;;;;;;;;;;;;;5080245;28;20038;-60
2021/04/21 14:07:47;;;;;;;8.02;2.28;;;;;;;;;;5075737;28;19916;-59
2021/04/21 14:10:14;;;;;;;9.23;2.30;;;;;;;;;;5081471;28;20041;-62
2021/04/21 14:12:40;;;;;;;5.25;2.22;;;;;;;;;;5076675;28;20036;-60
2021/04/21 14:15:07;;;;;;;6.97;1.75;;;;;;;;;;5081798;28;20045;-62
2021/04/21 14:17:33;;;;;;;7.53;2.40;;;;;;;;;;5079780;28;20041;-62
2021/04/21 14:19:59;;;;;;;8.10;1.67;;;;;;;;;;5075992;28;20051;-60
2021/04/21 14:22:25;;;;;;;6.00;2.03;;;;;;;;;;5085438;28;20036;-61
2021/04/21 14:24:52;;;;;;;13.13;3.05;;;;;;;;;;5083177;28;20036;-60
2021/04/21 14:27:18;;;;;;;7.72;2.63;;;;;;;;;;5079028;28;20036;-61
2021/04/21 14:29:47;;;;;;;9.52;2.78;;;;;;;;;;5082586;28;20055;-62
2021/04/21 14:32:13;;;;;;;13.82;3.15;;;;;;;;;;5081653;28;20110;-60
2021/04/21 14:34:39;;;;;;;10.63;2.95;;;;;;;;;;5080509;28;20060;-60
2021/04/21 14:37:05;;;;;;;14.93;3.45;;;;;;;;;;5082902;28;20174;-61
2021/04/21 14:39:35;;;;;;;12.57;2.88;;;;;;;;;;5077532;28;20050;-60
2021/04/21 14:42:02;;;;;;;16.35;3.10;;;;;;;;;;5082083;28;20048;-59